sensor_id;sensor_type;location;lat;lon;timestamp;temperature;humidity
31391;DHT22;18022;45.492;11.548;2024-02-23T00:02:15;9.90;99.90
31391;DHT22;18022;45.492;11.548;2024-02-23T00:04:41;9.90;99.90
31391;DHT22;18022;45.492;11.548;2024-02-23T00:07:07;9.90;99.90
31391;DHT22;18022;45.492;11.548;2024-02-23T00:09:33;9.90;99.90
31391;DHT22;18022;45.492;11.548;2024-02-23T00:11:59;10.00;99.90
31391;DHT22;18022;45.492;11.548;2024-02-23T00:14:25;10.10;99.90
31391;DHT22;18022;45.492;11.548;2024-02-23T00:16:51;10.00;99.90
31391;DHT22;18022;45.492;11.548;2024-02-23T00:19:16;10.00;99.90
31391;DHT22;18022;45.492;11.548;2024-02-23T00:21:44;10.00;99.90
31391;DHT22;18022;45.492;11.548;2024-02-23T00:24:15;10.00;99.90
31391;DHT22;18022;45.492;11.548;2024-02-23T00:26:42;10.00;99.90
31391;DHT22;18022;45.492;11.548;2024-02-23T00:29:07;9.90;99.90
31391;DHT22;18022;45.492;11.548;2024-02-23T00:31:34;10.00;99.90
31391;DHT22;18022;45.492;11.548;2024-02-23T00:34:01;10.10;99.90
31391;DHT22;18022;45.492;11.548;2024-02-23T00:36:27;10.00;99.90
31391;DHT22;18022;45.492;11.548;2024-02-23T00:38:52;10.00;99.90
31391;DHT22;18022;45.492;11.548;2024-02-23T00:41:18;10.00;99.90
31391;DHT22;18022;45.492;11.548;2024-02-23T00:43:44;10.00;99.90
31391;DHT22;18022;45.492;11.548;2024-02-23T00:46:09;9.80;99.90
31391;DHT22;18022;45.492;11.548;2024-02-23T00:48:35;9.50;99.90
31391;DHT22;18022;45.492;11.548;2024-02-23T00:51:04;9.60;99.90
31391;DHT22;18022;45.492;11.548;2024-02-23T00:53:33;9.60;99.90
31391;DHT22;18022;45.492;11.548;2024-02-23T00:55:59;9.70;99.90
31391;DHT22;18022;45.492;11.548;2024-02-23T00:58:24;9.70;99.90
31391;DHT22;18022;45.492;11.548;2024-02-23T01:00:50;9.70;99.90
31391;DHT22;18022;45.492;11.548;2024-02-23T01:03:16;9.70;99.90
31391;DHT22;18022;45.492;11.548;2024-02-23T01:05:41;9.70;99.90
31391;DHT22;18022;45.492;11.548;2024-02-23T01:08:08;9.70;99.90
31391;DHT22;18022;45.492;11.548;2024-02-23T01:10:34;9.70;99.90
31391;DHT22;18022;45.492;11.548;2024-02-23T01:13:00;9.70;99.90
31391;DHT22;18022;45.492;11.548;2024-02-23T01:15:25;9.80;99.90
31391;DHT22;18022;45.492;11.548;2024-02-23T01:17:51;9.70;99.90
31391;DHT22;18022;45.492;11.548;2024-02-23T01:20:17;9.70;99.90
31391;DHT22;18022;45.492;11.548;2024-02-23T01:22:43;9.70;99.90
31391;DHT22;18022;45.492;11.548;2024-02-23T01:25:09;9.70;99.90
31391;DHT22;18022;45.492;11.548;2024-02-23T01:27:34;9.70;99.90
31391;DHT22;18022;45.492;11.548;2024-02-23T01:30:00;9.70;99.90
31391;DHT22;18022;45.492;11.548;2024-02-23T01:32:26;9.70;99.90
31391;DHT22;18022;45.492;11.548;2024-02-23T01:34:52;9.60;99.90
31391;DHT22;18022;45.492;11.548;2024-02-23T01:37:17;9.40;99.90
31391;DHT22;18022;45.492;11.548;2024-02-23T01:39:43;9.50;99.90
31391;DHT22;18022;45.492;11.548;2024-02-23T01:42:10;9.60;99.90
31391;DHT22;18022;45.492;11.548;2024-02-23T01:44:36;9.60;99.90
31391;DHT22;18022;45.492;11.548;2024-02-23T01:47:01;9.60;99.90
31391;DHT22;18022;45.492;11.548;2024-02-23T01:49:28;9.50;99.90
31391;DHT22;18022;45.492;11.548;2024-02-23T01:51:59;9.60;99.90
31391;DHT22;18022;45.492;11.548;2024-02-23T01:54:26;9.60;99.90
31391;DHT22;18022;45.492;11.548;2024-02-23T01:56:53;9.70;99.90
31391;DHT22;18022;45.492;11.548;2024-02-23T01:59:20;9.60;99.90
31391;DHT22;18022;45.492;11.548;2024-02-23T02:01:46;9.50;99.90
31391;DHT22;18022;45.492;11.548;2024-02-23T02:04:12;9.70;99.90
31391;DHT22;18022;45.492;11.548;2024-02-23T02:06:38;9.70;99.90
31391;DHT22;18022;45.492;11.548;2024-02-23T02:09:04;9.70;99.90
31391;DHT22;18022;45.492;11.548;2024-02-23T02:11:29;9.70;99.90
31391;DHT22;18022;45.492;11.548;2024-02-23T02:13:55;9.60;99.90
31391;DHT22;18022;45.492;11.548;2024-02-23T02:16:21;9.70;99.90
31391;DHT22;18022;45.492;11.548;2024-02-23T02:18:46;9.60;99.90
31391;DHT22;18022;45.492;11.548;2024-02-23T02:21:12;9.60;99.90
31391;DHT22;18022;45.492;11.548;2024-02-23T02:23:38;9.60;99.90
31391;DHT22;18022;45.492;11.548;2024-02-23T02:26:04;9.70;99.90
31391;DHT22;18022;45.492;11.548;2024-02-23T02:28:30;9.60;99.90
31391;DHT22;18022;45.492;11.548;2024-02-23T02:30:55;9.40;99.90
31391;DHT22;18022;45.492;11.548;2024-02-23T02:33:22;9.50;99.90
31391;DHT22;18022;45.492;11.548;2024-02-23T02:35:48;9.50;99.90
31391;DHT22;18022;45.492;11.548;2024-02-23T02:38:15;9.50;99.90
31391;DHT22;18022;45.492;11.548;2024-02-23T02:40:41;9.60;99.90
31391;DHT22;18022;45.492;11.548;2024-02-23T02:43:07;9.60;99.90
31391;DHT22;18022;45.492;11.548;2024-02-23T02:45:33;9.60;99.90
31391;DHT22;18022;45.492;11.548;2024-02-23T02:48:03;9.70;99.90
31391;DHT22;18022;45.492;11.548;2024-02-23T02:50:29;9.70;99.90
31391;DHT22;18022;45.492;11.548;2024-02-23T02:52:55;9.60;99.90
31391;DHT22;18022;45.492;11.548;2024-02-23T02:55:20;9.60;99.90
31391;DHT22;18022;45.492;11.548;2024-02-23T02:57:46;9.60;99.90
31391;DHT22;18022;45.492;11.548;2024-02-23T03:00:12;9.60;99.90
31391;DHT22;18022;45.492;11.548;2024-02-23T03:02:38;9.60;99.90
31391;DHT22;18022;45.492;11.548;2024-02-23T03:05:04;9.60;99.90
31391;DHT22;18022;45.492;11.548;2024-02-23T03:07:30;9.60;99.90
31391;DHT22;18022;45.492;11.548;2024-02-23T03:09:56;9.60;99.90
31391;DHT22;18022;45.492;11.548;2024-02-23T03:12:21;9.60;99.90
31391;DHT22;18022;45.492;11.548;2024-02-23T03:14:47;9.60;99.90
31391;DHT22;18022;45.492;11.548;2024-02-23T03:17:13;9.60;99.90
31391;DHT22;18022;45.492;11.548;2024-02-23T03:19:38;9.60;99.90
31391;DHT22;18022;45.492;11.548;2024-02-23T03:22:04;9.60;99.90
31391;DHT22;18022;45.492;11.548;2024-02-23T03:24:30;9.70;99.90
31391;DHT22;18022;45.492;11.548;2024-02-23T03:26:56;9.70;99.90
31391;DHT22;18022;45.492;11.548;2024-02-23T03:29:22;9.70;99.90
31391;DHT22;18022;45.492;11.548;2024-02-23T03:31:55;9.70;99.90
31391;DHT22;18022;45.492;11.548;2024-02-23T03:34:20;9.70;99.90
31391;DHT22;18022;45.492;11.548;2024-02-23T03:36:46;9.70;99.90
31391;DHT22;18022;45.492;11.548;2024-02-23T03:39:12;9.70;99.90
31391;DHT22;18022;45.492;11.548;2024-02-23T03:41:38;9.60;99.90
31391;DHT22;18022;45.492;11.548;2024-02-23T03:44:04;9.40;99.90
31391;DHT22;18022;45.492;11.548;2024-02-23T03:46:29;9.40;99.90
31391;DHT22;18022;45.492;11.548;2024-02-23T03:48:55;9.60;99.90
31391;DHT22;18022;45.492;11.548;2024-02-23T03:51:21;9.70;99.90
31391;DHT22;18022;45.492;11.548;2024-02-23T03:53:47;9.70;99.90
31391;DHT22;18022;45.492;11.548;2024-02-23T03:56:13;9.80;99.90
31391;DHT22;18022;45.492;11.548;2024-02-23T03:58:38;9.80;99.90
31391;DHT22;18022;45.492;11.548;2024-02-23T04:01:04;9.80;99.90
31391;DHT22;18022;45.492;11.548;2024-02-23T04:03:30;9.80;99.90
31391;DHT22;18022;45.492;11.548;2024-02-23T04:05:55;9.70;99.90
31391;DHT22;18022;45.492;11.548;2024-02-23T04:08:21;9.70;99.90
31391;DHT22;18022;45.492;11.548;2024-02-23T04:10:47;9.70;99.90
31391;DHT22;18022;45.492;11.548;2024-02-23T04:13:13;9.70;99.90
31391;DHT22;18022;45.492;11.548;2024-02-23T04:15:39;9.80;99.90
31391;DHT22;18022;45.492;11.548;2024-02-23T04:18:06;9.90;99.90
31391;DHT22;18022;45.492;11.548;2024-02-23T04:20:31;9.90;99.90
31391;DHT22;18022;45.492;11.548;2024-02-23T04:22:58;9.90;99.90
31391;DHT22;18022;45.492;11.548;2024-02-23T04:25:24;9.90;99.90
31391;DHT22;18022;45.492;11.548;2024-02-23T04:27:50;9.90;99.90
31391;DHT22;18022;45.492;11.548;2024-02-23T04:30:15;9.90;99.90
31391;DHT22;18022;45.492;11.548;2024-02-23T04:32:41;9.90;99.90
31391;DHT22;18022;45.492;11.548;2024-02-23T04:35:08;9.90;99.90
31391;DHT22;18022;45.492;11.548;2024-02-23T04:37:33;9.70;99.90
31391;DHT22;18022;45.492;11.548;2024-02-23T04:39:59;9.80;99.90
31391;DHT22;18022;45.492;11.548;2024-02-23T04:42:25;9.80;99.90
31391;DHT22;18022;45.492;11.548;2024-02-23T04:44:51;9.80;99.90
31391;DHT22;18022;45.492;11.548;2024-02-23T04:47:20;9.90;99.90
31391;DHT22;18022;45.492;11.548;2024-02-23T04:49:45;9.90;99.90
31391;DHT22;18022;45.492;11.548;2024-02-23T04:52:11;9.80;99.90
31391;DHT22;18022;45.492;11.548;2024-02-23T04:54:37;9.60;99.90
31391;DHT22;18022;45.492;11.548;2024-02-23T04:57:03;9.60;99.90
31391;DHT22;18022;45.492;11.548;2024-02-23T04:59:28;9.70;99.90
31391;DHT22;18022;45.492;11.548;2024-02-23T05:01:55;9.80;99.90
31391;DHT22;18022;45.492;11.548;2024-02-23T05:04:21;9.60;99.90
31391;DHT22;18022;45.492;11.548;2024-02-23T05:06:46;9.70;99.90
31391;DHT22;18022;45.492;11.548;2024-02-23T05:09:13;9.70;99.90
31391;DHT22;18022;45.492;11.548;2024-02-23T05:11:39;9.70;99.90
31391;DHT22;18022;45.492;11.548;2024-02-23T05:14:04;9.70;99.90
31391;DHT22;18022;45.492;11.548;2024-02-23T05:16:31;9.70;99.90
31391;DHT22;18022;45.492;11.548;2024-02-23T05:18:57;9.80;99.90
31391;DHT22;18022;45.492;11.548;2024-02-23T05:21:22;9.60;99.90
31391;DHT22;18022;45.492;11.548;2024-02-23T05:23:48;9.60;99.90
31391;DHT22;18022;45.492;11.548;2024-02-23T05:26:14;9.70;99.90
31391;DHT22;18022;45.492;11.548;2024-02-23T05:28:39;9.60;99.90
31391;DHT22;18022;45.492;11.548;2024-02-23T05:31:05;9.70;99.90
31391;DHT22;18022;45.492;11.548;2024-02-23T05:33:31;9.80;99.90
31391;DHT22;18022;45.492;11.548;2024-02-23T05:35:57;9.70;99.90
31391;DHT22;18022;45.492;11.548;2024-02-23T05:38:23;9.80;99.90
31391;DHT22;18022;45.492;11.548;2024-02-23T05:40:48;9.80;99.90
31391;DHT22;18022;45.492;11.548;2024-02-23T05:43:14;9.70;99.90
31391;DHT22;18022;45.492;11.548;2024-02-23T05:45:40;9.80;99.90
31391;DHT22;18022;45.492;11.548;2024-02-23T05:48:06;9.70;99.90
31391;DHT22;18022;45.492;11.548;2024-02-23T05:50:32;9.70;99.90
31391;DHT22;18022;45.492;11.548;2024-02-23T05:52:58;9.80;99.90
31391;DHT22;18022;45.492;11.548;2024-02-23T05:55:24;9.80;99.90
31391;DHT22;18022;45.492;11.548;2024-02-23T05:57:50;9.80;99.90
31391;DHT22;18022;45.492;11.548;2024-02-23T06:00:17;9.80;99.90
31391;DHT22;18022;45.492;11.548;2024-02-23T06:02:45;9.80;99.90
31391;DHT22;18022;45.492;11.548;2024-02-23T06:05:12;9.80;99.90
31391;DHT22;18022;45.492;11.548;2024-02-23T06:07:37;9.90;99.90
31391;DHT22;18022;45.492;11.548;2024-02-23T06:10:04;9.90;99.90
31391;DHT22;18022;45.492;11.548;2024-02-23T06:12:30;9.80;99.90
31391;DHT22;18022;45.492;11.548;2024-02-23T06:14:56;9.80;99.90
31391;DHT22;18022;45.492;11.548;2024-02-23T06:17:22;9.80;99.90
31391;DHT22;18022;45.492;11.548;2024-02-23T06:19:48;9.80;99.90
31391;DHT22;18022;45.492;11.548;2024-02-23T06:22:14;9.90;99.90
31391;DHT22;18022;45.492;11.548;2024-02-23T06:24:42;10.00;99.90
31391;DHT22;18022;45.492;11.548;2024-02-23T06:27:08;9.90;99.90
31391;DHT22;18022;45.492;11.548;2024-02-23T06:29:34;10.00;99.90
31391;DHT22;18022;45.492;11.548;2024-02-23T06:31:59;9.90;99.90
31391;DHT22;18022;45.492;11.548;2024-02-23T06:34:28;9.90;99.90
31391;DHT22;18022;45.492;11.548;2024-02-23T06:36:54;10.00;99.90
31391;DHT22;18022;45.492;11.548;2024-02-23T06:39:19;10.00;99.90
31391;DHT22;18022;45.492;11.548;2024-02-23T06:41:45;10.10;99.90
31391;DHT22;18022;45.492;11.548;2024-02-23T06:44:11;10.10;99.90
31391;DHT22;18022;45.492;11.548;2024-02-23T06:46:37;10.10;99.90
31391;DHT22;18022;45.492;11.548;2024-02-23T06:49:03;10.20;99.90
31391;DHT22;18022;45.492;11.548;2024-02-23T06:51:31;10.30;99.90
31391;DHT22;18022;45.492;11.548;2024-02-23T06:53:56;10.50;99.90
31391;DHT22;18022;45.492;11.548;2024-02-23T06:56:22;10.40;99.90
31391;DHT22;18022;45.492;11.548;2024-02-23T06:58:48;10.30;99.90
31391;DHT22;18022;45.492;11.548;2024-02-23T07:01:14;10.20;99.90
31391;DHT22;18022;45.492;11.548;2024-02-23T07:03:39;10.10;99.90
31391;DHT22;18022;45.492;11.548;2024-02-23T07:06:06;10.10;99.90
31391;DHT22;18022;45.492;11.548;2024-02-23T07:08:32;10.10;99.90
31391;DHT22;18022;45.492;11.548;2024-02-23T07:10:58;10.20;99.90
31391;DHT22;18022;45.492;11.548;2024-02-23T07:13:23;10.20;99.90
31391;DHT22;18022;45.492;11.548;2024-02-23T07:15:49;10.30;99.90
31391;DHT22;18022;45.492;11.548;2024-02-23T07:18:15;10.10;99.90
31391;DHT22;18022;45.492;11.548;2024-02-23T07:20:41;10.20;99.90
31391;DHT22;18022;45.492;11.548;2024-02-23T07:23:07;10.20;99.90
31391;DHT22;18022;45.492;11.548;2024-02-23T07:25:33;10.30;99.90
31391;DHT22;18022;45.492;11.548;2024-02-23T07:27:58;10.20;99.90
31391;DHT22;18022;45.492;11.548;2024-02-23T07:30:24;10.20;99.90
31391;DHT22;18022;45.492;11.548;2024-02-23T07:32:50;10.30;99.90
31391;DHT22;18022;45.492;11.548;2024-02-23T07:35:16;10.20;99.90
31391;DHT22;18022;45.492;11.548;2024-02-23T07:37:41;10.20;99.90
31391;DHT22;18022;45.492;11.548;2024-02-23T07:40:07;10.20;99.90
31391;DHT22;18022;45.492;11.548;2024-02-23T07:42:33;10.20;99.90
31391;DHT22;18022;45.492;11.548;2024-02-23T07:45:02;10.20;99.90
31391;DHT22;18022;45.492;11.548;2024-02-23T07:47:32;10.20;99.90
31391;DHT22;18022;45.492;11.548;2024-02-23T07:49:58;10.20;99.90
31391;DHT22;18022;45.492;11.548;2024-02-23T07:52:24;10.20;99.90
31391;DHT22;18022;45.492;11.548;2024-02-23T07:54:52;10.20;99.90
31391;DHT22;18022;45.492;11.548;2024-02-23T07:57:18;10.30;99.90
31391;DHT22;18022;45.492;11.548;2024-02-23T07:59:44;10.20;99.90
31391;DHT22;18022;45.492;11.548;2024-02-23T08:02:10;10.20;99.90
31391;DHT22;18022;45.492;11.548;2024-02-23T08:04:36;10.30;99.90
31391;DHT22;18022;45.492;11.548;2024-02-23T08:07:03;10.20;99.90
31391;DHT22;18022;45.492;11.548;2024-02-23T08:09:29;10.20;99.90
31391;DHT22;18022;45.492;11.548;2024-02-23T08:11:55;10.20;99.90
31391;DHT22;18022;45.492;11.548;2024-02-23T08:14:21;10.30;99.90
31391;DHT22;18022;45.492;11.548;2024-02-23T08:16:46;10.30;99.90
31391;DHT22;18022;45.492;11.548;2024-02-23T08:19:12;10.40;99.90
31391;DHT22;18022;45.492;11.548;2024-02-23T08:21:38;10.30;99.90
31391;DHT22;18022;45.492;11.548;2024-02-23T08:24:05;10.30;99.90
31391;DHT22;18022;45.492;11.548;2024-02-23T08:26:30;10.30;99.90
31391;DHT22;18022;45.492;11.548;2024-02-23T08:28:56;10.40;99.90
31391;DHT22;18022;45.492;11.548;2024-02-23T08:31:22;10.40;99.90
31391;DHT22;18022;45.492;11.548;2024-02-23T08:33:47;10.40;99.90
31391;DHT22;18022;45.492;11.548;2024-02-23T08:36:13;10.40;99.90
31391;DHT22;18022;45.492;11.548;2024-02-23T08:38:38;10.50;99.90
31391;DHT22;18022;45.492;11.548;2024-02-23T08:41:04;10.50;99.90
31391;DHT22;18022;45.492;11.548;2024-02-23T08:43:30;10.50;99.90
31391;DHT22;18022;45.492;11.548;2024-02-23T08:45:55;10.50;99.90
31391;DHT22;18022;45.492;11.548;2024-02-23T08:48:21;10.50;99.90
31391;DHT22;18022;45.492;11.548;2024-02-23T08:50:47;10.50;99.90
31391;DHT22;18022;45.492;11.548;2024-02-23T08:53:13;10.50;99.90
31391;DHT22;18022;45.492;11.548;2024-02-23T08:55:38;10.50;99.90
31391;DHT22;18022;45.492;11.548;2024-02-23T08:58:04;10.40;99.90
31391;DHT22;18022;45.492;11.548;2024-02-23T09:00:31;10.50;99.90
31391;DHT22;18022;45.492;11.548;2024-02-23T09:02:57;10.50;99.90
31391;DHT22;18022;45.492;11.548;2024-02-23T09:05:23;10.50;99.90
31391;DHT22;18022;45.492;11.548;2024-02-23T09:07:49;10.50;99.90
31391;DHT22;18022;45.492;11.548;2024-02-23T09:10:14;10.50;99.90
31391;DHT22;18022;45.492;11.548;2024-02-23T09:12:40;10.50;99.90
31391;DHT22;18022;45.492;11.548;2024-02-23T09:15:06;10.50;99.90
31391;DHT22;18022;45.492;11.548;2024-02-23T09:17:33;10.50;99.90
31391;DHT22;18022;45.492;11.548;2024-02-23T09:19:58;10.50;99.90
31391;DHT22;18022;45.492;11.548;2024-02-23T09:22:24;10.60;99.90
31391;DHT22;18022;45.492;11.548;2024-02-23T09:24:50;10.50;99.90
31391;DHT22;18022;45.492;11.548;2024-02-23T09:27:16;10.30;99.90
31391;DHT22;18022;45.492;11.548;2024-02-23T09:29:41;10.40;99.90
31391;DHT22;18022;45.492;11.548;2024-02-23T09:32:08;10.50;99.90
31391;DHT22;18022;45.492;11.548;2024-02-23T09:34:34;10.40;99.90
31391;DHT22;18022;45.492;11.548;2024-02-23T09:37:00;10.40;99.90
31391;DHT22;18022;45.492;11.548;2024-02-23T09:39:25;10.40;99.90
31391;DHT22;18022;45.492;11.548;2024-02-23T09:41:55;10.50;99.90
31391;DHT22;18022;45.492;11.548;2024-02-23T09:44:22;10.40;99.90
31391;DHT22;18022;45.492;11.548;2024-02-23T09:46:48;10.50;99.90
31391;DHT22;18022;45.492;11.548;2024-02-23T09:49:18;10.50;99.90
31391;DHT22;18022;45.492;11.548;2024-02-23T09:51:44;10.60;99.90
31391;DHT22;18022;45.492;11.548;2024-02-23T09:54:10;10.60;99.90
31391;DHT22;18022;45.492;11.548;2024-02-23T09:56:36;10.50;99.90
31391;DHT22;18022;45.492;11.548;2024-02-23T09:59:03;10.40;99.90
31391;DHT22;18022;45.492;11.548;2024-02-23T10:01:30;10.40;99.90
31391;DHT22;18022;45.492;11.548;2024-02-23T10:04:00;10.40;99.90
31391;DHT22;18022;45.492;11.548;2024-02-23T10:06:26;10.50;99.90
31391;DHT22;18022;45.492;11.548;2024-02-23T10:08:53;10.40;99.90
31391;DHT22;18022;45.492;11.548;2024-02-23T10:11:22;10.50;99.90
31391;DHT22;18022;45.492;11.548;2024-02-23T10:13:48;10.50;99.90
31391;DHT22;18022;45.492;11.548;2024-02-23T10:16:22;10.40;99.90
31391;DHT22;18022;45.492;11.548;2024-02-23T10:18:48;10.40;99.90
31391;DHT22;18022;45.492;11.548;2024-02-23T10:21:17;10.40;99.90
31391;DHT22;18022;45.492;11.548;2024-02-23T10:23:47;10.50;99.90
31391;DHT22;18022;45.492;11.548;2024-02-23T10:26:13;10.50;99.90
31391;DHT22;18022;45.492;11.548;2024-02-23T10:28:45;10.50;99.90
31391;DHT22;18022;45.492;11.548;2024-02-23T10:31:11;10.50;99.90
31391;DHT22;18022;45.492;11.548;2024-02-23T10:33:38;10.40;99.90
31391;DHT22;18022;45.492;11.548;2024-02-23T10:36:05;10.40;99.90
31391;DHT22;18022;45.492;11.548;2024-02-23T10:38:32;10.40;99.90
31391;DHT22;18022;45.492;11.548;2024-02-23T10:40:58;10.50;99.90
31391;DHT22;18022;45.492;11.548;2024-02-23T10:43:33;10.50;99.90
31391;DHT22;18022;45.492;11.548;2024-02-23T10:46:00;10.50;99.90
31391;DHT22;18022;45.492;11.548;2024-02-23T10:48:29;10.50;99.90
31391;DHT22;18022;45.492;11.548;2024-02-23T10:50:56;10.50;99.90
31391;DHT22;18022;45.492;11.548;2024-02-23T10:53:24;10.50;99.90
31391;DHT22;18022;45.492;11.548;2024-02-23T10:55:56;10.40;99.90
31391;DHT22;18022;45.492;11.548;2024-02-23T10:58:23;10.50;99.90
31391;DHT22;18022;45.492;11.548;2024-02-23T11:00:49;10.50;99.90
31391;DHT22;18022;45.492;11.548;2024-02-23T11:03:16;10.70;99.90
31391;DHT22;18022;45.492;11.548;2024-02-23T11:05:42;10.80;99.90
31391;DHT22;18022;45.492;11.548;2024-02-23T11:08:09;10.70;99.90
31391;DHT22;18022;45.492;11.548;2024-02-23T11:10:49;10.80;99.90
31391;DHT22;18022;45.492;11.548;2024-02-23T11:13:18;10.70;99.90
31391;DHT22;18022;45.492;11.548;2024-02-23T11:15:44;10.70;99.90
31391;DHT22;18022;45.492;11.548;2024-02-23T11:18:31;10.70;99.90
31391;DHT22;18022;45.492;11.548;2024-02-23T11:21:02;10.70;99.90
31391;DHT22;18022;45.492;11.548;2024-02-23T11:23:41;10.70;99.90
31391;DHT22;18022;45.492;11.548;2024-02-23T11:26:12;10.80;99.90
31391;DHT22;18022;45.492;11.548;2024-02-23T11:28:53;10.70;99.90
31391;DHT22;18022;45.492;11.548;2024-02-23T11:31:21;10.70;99.90
31391;DHT22;18022;45.492;11.548;2024-02-23T11:33:55;10.70;99.90
31391;DHT22;18022;45.492;11.548;2024-02-23T11:36:32;10.70;99.90
31391;DHT22;18022;45.492;11.548;2024-02-23T11:38:59;10.70;99.90
31391;DHT22;18022;45.492;11.548;2024-02-23T11:41:26;10.70;99.90
31391;DHT22;18022;45.492;11.548;2024-02-23T11:43:53;10.60;99.90
31391;DHT22;18022;45.492;11.548;2024-02-23T11:46:19;10.70;99.90
31391;DHT22;18022;45.492;11.548;2024-02-23T11:48:46;10.80;99.90
31391;DHT22;18022;45.492;11.548;2024-02-23T11:51:15;10.80;99.90
31391;DHT22;18022;45.492;11.548;2024-02-23T11:53:42;10.80;99.90
31391;DHT22;18022;45.492;11.548;2024-02-23T11:56:09;10.60;99.90
31391;DHT22;18022;45.492;11.548;2024-02-23T11:58:35;10.70;99.90
31391;DHT22;18022;45.492;11.548;2024-02-23T12:01:02;10.70;99.90
31391;DHT22;18022;45.492;11.548;2024-02-23T12:03:31;10.80;99.90
31391;DHT22;18022;45.492;11.548;2024-02-23T12:05:57;10.80;99.90
31391;DHT22;18022;45.492;11.548;2024-02-23T12:08:27;10.80;99.90
31391;DHT22;18022;45.492;11.548;2024-02-23T12:10:54;10.80;99.90
31391;DHT22;18022;45.492;11.548;2024-02-23T12:13:20;10.80;99.90
31391;DHT22;18022;45.492;11.548;2024-02-23T12:15:47;10.80;99.90
31391;DHT22;18022;45.492;11.548;2024-02-23T12:18:13;10.80;99.90
31391;DHT22;18022;45.492;11.548;2024-02-23T12:20:40;10.90;99.90
31391;DHT22;18022;45.492;11.548;2024-02-23T12:23:06;10.90;99.90
31391;DHT22;18022;45.492;11.548;2024-02-23T12:25:33;10.90;99.90
31391;DHT22;18022;45.492;11.548;2024-02-23T12:27:59;10.90;99.90
31391;DHT22;18022;45.492;11.548;2024-02-23T12:30:26;10.90;99.90
31391;DHT22;18022;45.492;11.548;2024-02-23T12:33:04;10.90;99.90
31391;DHT22;18022;45.492;11.548;2024-02-23T12:35:30;11.00;99.90
31391;DHT22;18022;45.492;11.548;2024-02-23T12:37:55;11.00;99.90
31391;DHT22;18022;45.492;11.548;2024-02-23T12:40:21;10.90;99.90
31391;DHT22;18022;45.492;11.548;2024-02-23T12:42:47;10.80;99.90
31391;DHT22;18022;45.492;11.548;2024-02-23T12:45:14;10.90;99.90
31391;DHT22;18022;45.492;11.548;2024-02-23T12:47:39;10.80;99.90
31391;DHT22;18022;45.492;11.548;2024-02-23T12:50:06;10.90;99.90
31391;DHT22;18022;45.492;11.548;2024-02-23T12:52:33;11.00;99.90
31391;DHT22;18022;45.492;11.548;2024-02-23T12:54:59;11.00;99.90
31391;DHT22;18022;45.492;11.548;2024-02-23T12:57:25;11.00;99.90
31391;DHT22;18022;45.492;11.548;2024-02-23T12:59:51;10.90;99.90
31391;DHT22;18022;45.492;11.548;2024-02-23T13:02:17;10.80;99.90
31391;DHT22;18022;45.492;11.548;2024-02-23T13:04:43;10.80;99.90
31391;DHT22;18022;45.492;11.548;2024-02-23T13:07:14;10.80;99.90
31391;DHT22;18022;45.492;11.548;2024-02-23T13:09:41;10.90;99.90
31391;DHT22;18022;45.492;11.548;2024-02-23T13:12:06;10.90;99.90
31391;DHT22;18022;45.492;11.548;2024-02-23T13:14:32;10.80;99.90
31391;DHT22;18022;45.492;11.548;2024-02-23T13:16:58;10.80;99.90
31391;DHT22;18022;45.492;11.548;2024-02-23T13:19:23;10.60;99.90
31391;DHT22;18022;45.492;11.548;2024-02-23T13:21:49;10.60;99.90
31391;DHT22;18022;45.492;11.548;2024-02-23T13:24:15;10.60;99.90
31391;DHT22;18022;45.492;11.548;2024-02-23T13:26:41;10.70;99.90
31391;DHT22;18022;45.492;11.548;2024-02-23T13:29:08;10.80;99.90
31391;DHT22;18022;45.492;11.548;2024-02-23T13:31:34;10.80;99.90
31391;DHT22;18022;45.492;11.548;2024-02-23T13:34:00;10.90;99.90
31391;DHT22;18022;45.492;11.548;2024-02-23T13:36:25;10.90;99.90
31391;DHT22;18022;45.492;11.548;2024-02-23T13:38:51;10.90;99.90
31391;DHT22;18022;45.492;11.548;2024-02-23T13:41:17;10.90;99.90
31391;DHT22;18022;45.492;11.548;2024-02-23T13:43:43;10.90;99.90
31391;DHT22;18022;45.492;11.548;2024-02-23T13:46:09;10.90;99.90
31391;DHT22;18022;45.492;11.548;2024-02-23T13:48:36;11.00;99.90
31391;DHT22;18022;45.492;11.548;2024-02-23T13:51:02;11.00;99.90
31391;DHT22;18022;45.492;11.548;2024-02-23T13:53:30;10.90;99.90
31391;DHT22;18022;45.492;11.548;2024-02-23T13:55:56;10.90;99.90
31391;DHT22;18022;45.492;11.548;2024-02-23T13:58:22;11.00;99.90
31391;DHT22;18022;45.492;11.548;2024-02-23T14:00:48;11.10;99.90
31391;DHT22;18022;45.492;11.548;2024-02-23T14:03:16;11.10;99.90
31391;DHT22;18022;45.492;11.548;2024-02-23T14:05:43;11.10;99.90
31391;DHT22;18022;45.492;11.548;2024-02-23T14:08:10;11.10;99.90
31391;DHT22;18022;45.492;11.548;2024-02-23T14:10:36;11.10;99.90
31391;DHT22;18022;45.492;11.548;2024-02-23T14:13:02;11.20;99.90
31391;DHT22;18022;45.492;11.548;2024-02-23T14:15:28;11.20;99.90
31391;DHT22;18022;45.492;11.548;2024-02-23T14:17:53;11.20;99.90
31391;DHT22;18022;45.492;11.548;2024-02-23T14:20:19;11.20;99.90
31391;DHT22;18022;45.492;11.548;2024-02-23T14:22:45;11.10;99.90
31391;DHT22;18022;45.492;11.548;2024-02-23T14:25:11;11.10;99.90
31391;DHT22;18022;45.492;11.548;2024-02-23T14:27:36;11.10;99.90
31391;DHT22;18022;45.492;11.548;2024-02-23T14:30:02;11.10;99.90
31391;DHT22;18022;45.492;11.548;2024-02-23T14:32:28;11.30;99.90
31391;DHT22;18022;45.492;11.548;2024-02-23T14:34:54;11.30;99.90
31391;DHT22;18022;45.492;11.548;2024-02-23T14:37:20;11.10;99.90
31391;DHT22;18022;45.492;11.548;2024-02-23T14:39:46;11.10;99.90
31391;DHT22;18022;45.492;11.548;2024-02-23T14:42:11;11.10;99.90
31391;DHT22;18022;45.492;11.548;2024-02-23T14:44:37;11.00;99.90
31391;DHT22;18022;45.492;11.548;2024-02-23T14:47:03;11.00;99.90
31391;DHT22;18022;45.492;11.548;2024-02-23T14:49:31;11.00;99.90
31391;DHT22;18022;45.492;11.548;2024-02-23T14:51:57;10.90;99.90
31391;DHT22;18022;45.492;11.548;2024-02-23T14:54:22;10.80;99.90
31391;DHT22;18022;45.492;11.548;2024-02-23T14:56:48;10.60;99.90
31391;DHT22;18022;45.492;11.548;2024-02-23T14:59:14;10.60;99.90
31391;DHT22;18022;45.492;11.548;2024-02-23T15:01:40;10.60;99.90
31391;DHT22;18022;45.492;11.548;2024-02-23T15:04:08;10.50;99.90
31391;DHT22;18022;45.492;11.548;2024-02-23T15:06:35;10.40;99.90
31391;DHT22;18022;45.492;11.548;2024-02-23T15:09:03;10.40;99.90
31391;DHT22;18022;45.492;11.548;2024-02-23T15:11:29;10.40;99.90
31391;DHT22;18022;45.492;11.548;2024-02-23T15:13:55;10.40;99.90
31391;DHT22;18022;45.492;11.548;2024-02-23T15:16:24;10.40;99.90
31391;DHT22;18022;45.492;11.548;2024-02-23T15:18:50;10.30;99.90